Time;durP1;ratioP1;P1;durP2;ratioP2;P2;SDS_P1;SDS_P2;PMS_P1;PMS_P2;Temp;Humidity;BMP_temperature;BMP_pressure;BME280_temperature;BME280_humidity;BME280_pressure;Samples;Min_cycle;Max_cycle;Signal;HPM_P1;HPM_P2
2023/06/13 00:02:00;;;;;;;4.70;3.10;;;;;;;16.88;45.20;100976.13;107557;1259;62337;-71
2023/06/13 00:04:30;;;;;;;4.20;2.80;;;;;;;16.83;45.10;100973.29;108309;1259;59236;-71
2023/06/13 00:07:00;;;;;;;4.40;2.90;;;;;;;16.78;45.26;100970.35;107492;1260;74784;-70
2023/06/13 00:09:28;;;;;;;6.20;3.20;;;;;;;16.73;45.39;100970.80;108128;1260;71035;-71
2023/06/13 00:11:56;;;;;;;4.70;2.90;;;;;;;16.67;45.36;100966.74;107682;1261;71711;-71
2023/06/13 00:14:24;;;;;;;4.40;2.80;;;;;;;16.64;45.37;100972.40;107546;1257;61250;-71
2023/06/13 00:16:51;;;;;;;5.30;2.50;;;;;;;16.58;45.51;100970.71;107779;1257;61142;-70
2023/06/13 00:19:19;;;;;;;7.10;2.60;;;;;;;16.55;45.70;100972.23;107917;1260;73543;-71
2023/06/13 00:21:46;;;;;;;5.00;3.00;;;;;;;16.51;45.68;100971.30;108155;1260;70938;-71
2023/06/13 00:24:14;;;;;;;5.20;2.80;;;;;;;16.48;45.75;100970.64;107753;1260;72961;-72
2023/06/13 00:26:41;;;;;;;5.40;2.80;;;;;;;16.44;45.78;100967.89;108118;1259;61250;-71
2023/06/13 00:29:08;;;;;;;7.00;2.90;;;;;;;16.41;46.10;100966.40;107993;1260;59385;-70
2023/06/13 00:31:35;;;;;;;5.40;2.90;;;;;;;16.37;46.15;100965.70;108020;1259;73753;-70
2023/06/13 00:34:02;;;;;;;6.70;3.10;;;;;;;16.33;46.17;100965.45;107958;1258;70894;-70
2023/06/13 00:36:32;;;;;;;3.60;2.60;;;;;;;16.30;46.32;100964.59;107368;1263;72783;-72
2023/06/13 00:38:58;;;;;;;4.80;2.70;;;;;;;16.25;46.49;100963.98;107724;1260;61490;-71
2023/06/13 00:41:25;;;;;;;4.90;2.90;;;;;;;16.22;46.36;100962.29;107757;1258;60465;-70
2023/06/13 00:43:52;;;;;;;5.90;2.80;;;;;;;16.19;46.57;100965.33;107378;1259;74600;-71
2023/06/13 00:46:29;;;;;;;4.70;2.70;;;;;;;16.16;46.63;100962.20;108092;1259;71263;-71
2023/06/13 00:48:59;;;;;;;4.90;2.90;;;;;;;16.13;46.76;100964.78;108114;1259;71447;-71
2023/06/13 00:51:28;;;;;;;5.00;2.40;;;;;;;16.10;46.80;100963.23;107195;1259;61284;-71
2023/06/13 00:53:56;;;;;;;5.10;2.70;;;;;;;16.07;47.08;100964.16;107769;1260;61391;-70
2023/06/13 00:56:24;;;;;;;6.30;3.00;;;;;;;16.03;47.28;100957.66;107582;1259;74739;-70
2023/06/13 00:58:54;;;;;;;5.20;2.70;;;;;;;16.01;47.06;100962.73;107697;1260;71165;-71
2023/06/13 01:01:22;;;;;;;4.60;2.90;;;;;;;15.99;47.13;100955.72;107582;1260;72851;-72
2023/06/13 01:03:50;;;;;;;7.90;3.00;;;;;;;15.98;47.00;100956.26;107432;1259;60201;-72
2023/06/13 01:06:18;;;;;;;7.30;2.90;;;;;;;15.97;47.10;100955.51;108318;1260;60278;-71
2023/06/13 01:08:45;;;;;;;5.30;2.70;;;;;;;15.96;47.07;100952.42;107848;1259;72856;-71
2023/06/13 01:11:21;;;;;;;4.50;2.90;;;;;;;15.93;47.31;100953.31;107441;1259;1258086;-71
2023/06/13 01:13:54;;;;;;;4.80;2.90;;;;;;;15.90;47.33;100955.95;108043;1261;71179;-72
2023/06/13 01:16:25;;;;;;;5.90;2.70;;;;;;;15.89;47.34;100957.38;107529;1258;61597;-70
2023/06/13 01:18:56;;;;;;;4.50;2.50;;;;;;;15.87;47.49;100953.94;107962;1259;59182;-71
2023/06/13 01:21:24;;;;;;;4.40;2.40;;;;;;;15.85;47.51;100957.73;107908;1259;73643;-71
2023/06/13 01:24:04;;;;;;;6.20;2.90;;;;;;;15.84;47.46;100955.44;108196;1258;69970;-70
2023/06/13 01:26:51;;;;;;;4.60;2.70;;;;;;;15.82;47.69;100955.86;107743;1257;72116;-70
2023/06/13 01:29:18;;;;;;;5.60;2.60;;;;;;;15.80;47.97;100954.38;107868;1262;61358;-71
2023/06/13 01:31:48;;;;;;;5.20;2.70;;;;;;;15.78;47.91;100951.41;107638;1259;60437;-71
2023/06/13 01:34:16;;;;;;;5.20;2.70;;;;;;;15.75;48.00;100953.91;107110;1258;73899;-71
2023/06/13 01:36:43;;;;;;;3.70;2.50;;;;;;;15.72;48.14;100947.77;107769;1260;70354;-72
2023/06/13 01:39:10;;;;;;;3.80;2.30;;;;;;;15.68;48.26;100948.14;107966;1259;71462;-71
2023/06/13 01:41:37;;;;;;;6.60;2.70;;;;;;;15.64;48.45;100946.45;108089;1260;61345;-71
2023/06/13 01:44:06;;;;;;;3.90;2.70;;;;;;;15.60;48.61;100948.58;107746;1259;61267;-70
2023/06/13 01:46:44;;;;;;;5.10;2.70;;;;;;;15.55;48.70;100949.77;107604;1258;73462;-72
2023/06/13 01:49:31;;;;;;;6.20;2.90;;;;;;;15.50;48.61;100947.86;108156;1257;72374;-72
2023/06/13 01:52:15;;;;;;;7.20;2.90;;;;;;;15.45;48.83;100947.30;107502;1257;73040;-71
2023/06/13 01:54:47;;;;;;;3.60;2.70;;;;;;;15.39;48.97;100945.67;108698;1259;59520;-72
2023/06/13 01:57:17;;;;;;;6.20;2.70;;;;;;;15.34;48.79;100945.58;108025;1259;61304;-72
2023/06/13 01:59:46;;;;;;;5.00;2.70;;;;;;;15.27;49.01;100945.14;108048;1257;74468;-72
2023/06/13 02:02:13;;;;;;;5.00;2.50;;;;;;;15.21;49.16;100942.04;108022;1259;71928;-72
2023/06/13 02:04:41;;;;;;;5.30;2.90;;;;;;;15.15;49.21;100943.83;107819;1259;72433;-70
2023/06/13 02:07:08;;;;;;;5.30;2.90;;;;;;;15.08;49.41;100939.23;107910;1260;61241;-71
2023/06/13 02:09:35;;;;;;;4.30;2.40;;;;;;;15.01;49.59;100939.64;108320;1259;61103;-71
2023/06/13 02:12:02;;;;;;;5.60;2.60;;;;;;;14.94;49.91;100942.11;107443;1259;73058;-71
2023/06/13 02:14:32;;;;;;;6.40;2.80;;;;;;;14.88;50.07;100938.96;107670;1259;70040;-71
2023/06/13 02:17:00;;;;;;;5.00;2.70;;;;;;;14.82;50.14;100938.11;107623;1259;71995;-71
2023/06/13 02:19:27;;;;;;;3.90;2.60;;;;;;;14.77;50.38;100935.14;107619;1258;61512;-71
2023/06/13 02:21:54;;;;;;;4.50;2.60;;;;;;;14.69;50.39;100938.00;107635;1259;60735;-71
2023/06/13 02:24:21;;;;;;;6.10;2.60;;;;;;;14.62;50.60;100936.71;107717;1259;74794;-70
2023/06/13 02:26:49;;;;;;;3.90;2.70;;;;;;;14.57;50.95;100938.73;107885;1259;68948;-70
2023/06/13 02:29:18;;;;;;;5.40;2.50;;;;;;;14.49;51.04;100936.42;107850;1258;72494;-73
2023/06/13 02:31:45;;;;;;;4.20;2.60;;;;;;;14.43;51.40;100937.05;107546;1259;60960;-70
2023/06/13 02:34:13;;;;;;;5.90;2.90;;;;;;;14.37;51.51;100948.38;107730;1258;59921;-70
2023/06/13 02:36:39;;;;;;;4.50;2.40;;;;;;;14.31;51.54;100943.39;107921;1259;75334;-71
2023/06/13 02:39:09;;;;;;;7.00;2.90;;;;;;;14.25;51.78;100945.81;107663;1259;69908;-71
2023/06/13 02:41:36;;;;;;;4.60;2.70;;;;;;;14.20;51.94;100942.20;107593;1257;71819;-72
2023/06/13 02:44:03;;;;;;;3.70;2.60;;;;;;;14.15;52.22;100942.66;107936;1259;59249;-71
2023/06/13 02:46:30;;;;;;;4.60;2.90;;;;;;;14.11;52.46;100941.44;108194;1261;61199;-71
2023/06/13 02:48:56;;;;;;;4.30;2.70;;;;;;;14.06;52.57;100938.43;107378;1258;73831;-71
2023/06/13 02:51:24;;;;;;;3.80;2.40;;;;;;;14.02;52.60;100942.21;107954;1259;70914;-71
2023/06/13 02:53:51;;;;;;;4.40;2.50;;;;;;;13.99;52.63;100941.52;107222;1260;72423;-72
2023/06/13 02:56:18;;;;;;;5.70;2.70;;;;;;;13.95;52.98;100939.77;107866;1259;61372;-69
2023/06/13 02:58:45;;;;;;;4.00;2.80;;;;;;;13.91;52.96;100942.19;107814;1259;59484;-71
2023/06/13 03:01:12;;;;;;;5.20;2.70;;;;;;;13.87;53.16;100946.01;107476;1259;74296;-70
2023/06/13 03:03:39;;;;;;;5.60;2.70;;;;;;;13.83;53.22;100941.99;107336;1259;69667;-70
2023/06/13 03:06:07;;;;;;;5.40;3.10;;;;;;;13.79;53.35;100940.08;108086;1259;71234;-70
2023/06/13 03:08:34;;;;;;;5.20;2.80;;;;;;;13.76;53.39;100937.55;107733;1259;61134;-72
2023/06/13 03:11:02;;;;;;;4.50;2.90;;;;;;;13.74;53.40;100936.70;107697;1259;59417;-71
2023/06/13 03:13:29;;;;;;;3.70;2.60;;;;;;;13.73;53.47;100940.09;107492;1259;74584;-72
2023/06/13 03:15:57;;;;;;;4.10;2.70;;;;;;;13.72;53.55;100935.48;107983;1259;70038;-70
2023/06/13 03:18:25;;;;;;;6.40;2.70;;;;;;;13.71;53.78;100941.23;107587;1260;71294;-70
2023/06/13 03:20:52;;;;;;;4.50;2.30;;;;;;;13.70;53.93;100935.30;107569;1259;62392;-71
2023/06/13 03:23:19;;;;;;;6.40;2.60;;;;;;;13.70;53.96;100938.82;108180;1259;61167;-71
2023/06/13 03:25:46;;;;;;;5.00;2.40;;;;;;;13.68;53.81;100938.20;107819;1259;73195;-72
2023/06/13 03:28:13;;;;;;;6.30;2.60;;;;;;;13.67;54.48;100941.38;108236;1257;70260;-71
2023/06/13 03:30:40;;;;;;;4.70;2.60;;;;;;;13.65;54.52;100941.54;107518;1259;72796;-71
2023/06/13 03:33:07;;;;;;;5.70;2.60;;;;;;;13.64;54.84;100938.19;108143;1258;59700;-71
2023/06/13 03:35:35;;;;;;;4.70;3.20;;;;;;;13.63;54.88;100938.34;107664;1259;61174;-71
2023/06/13 03:38:02;;;;;;;5.00;2.50;;;;;;;13.60;55.31;100935.64;107657;1260;73144;-74
2023/06/13 03:40:29;;;;;;;4.50;2.40;;;;;;;13.58;55.44;100938.70;107248;1260;69457;-72
2023/06/13 03:42:57;;;;;;;6.00;2.50;;;;;;;13.56;55.64;100939.84;108689;1259;72652;-73
2023/06/13 03:45:27;;;;;;;4.80;2.60;;;;;;;13.56;55.69;100941.69;108375;1258;59606;-73
2023/06/13 03:47:54;;;;;;;5.00;2.70;;;;;;;13.56;55.69;100942.14;108105;1258;61175;-74
2023/06/13 03:50:22;;;;;;;5.70;2.70;;;;;;;13.56;55.87;100945.34;107779;1259;73967;-73
2023/06/13 03:52:48;;;;;;;6.50;2.70;;;;;;;13.57;55.72;100949.48;108216;1258;70021;-73
2023/06/13 03:55:16;;;;;;;6.90;2.80;;;;;;;13.59;55.94;100948.34;108076;1259;70476;-73
2023/06/13 03:57:43;;;;;;;4.30;2.30;;;;;;;13.60;55.77;100950.20;108184;1257;61574;-74
2023/06/13 04:00:11;;;;;;;8.20;2.80;;;;;;;13.62;55.77;100951.17;107952;1259;61192;-73
2023/06/13 04:02:38;;;;;;;4.40;2.50;;;;;;;13.62;55.81;100945.76;107847;1258;74160;-73
2023/06/13 04:05:07;;;;;;;4.50;2.70;;;;;;;13.66;56.16;100949.33;107743;1259;70284;-73
2023/06/13 04:07:35;;;;;;;5.00;2.90;;;;;;;13.68;56.04;100951.20;107467;1259;72342;-74
2023/06/13 04:10:02;;;;;;;7.00;2.70;;;;;;;13.70;56.07;100953.80;108077;1257;59508;-74
2023/06/13 04:12:30;;;;;;;5.30;2.40;;;;;;;13.73;55.93;100947.51;108252;1257;59721;-72
2023/06/13 04:14:57;;;;;;;4.20;2.50;;;;;;;13.78;56.03;100944.15;108203;1259;73384;-73
2023/06/13 04:17:24;;;;;;;5.30;2.30;;;;;;;13.82;55.60;100948.02;107623;1257;70125;-73
2023/06/13 04:19:52;;;;;;;3.70;2.30;;;;;;;13.87;55.71;100946.71;107345;1257;73176;-74
2023/06/13 04:22:19;;;;;;;4.10;2.20;;;;;;;13.93;55.36;100947.91;108244;1258;62412;-73
2023/06/13 04:24:46;;;;;;;4.50;2.30;;;;;;;14.00;55.36;100948.71;107867;1259;59062;-73
2023/06/13 04:27:19;;;;;;;9.50;5.80;;;;;;;14.06;55.15;100947.18;107996;1259;74794;-71
2023/06/13 04:29:48;;;;;;;6.50;2.80;;;;;;;14.13;55.46;100944.89;107493;1258;71095;-72
2023/06/13 04:32:17;;;;;;;4.10;1.90;;;;;;;14.22;55.34;100946.98;107619;1257;73204;-74
2023/06/13 04:34:45;;;;;;;3.50;2.30;;;;;;;14.30;54.98;100950.91;105543;1257;61358;-74
2023/06/13 04:37:13;;;;;;;5.20;2.10;;;;;;;14.40;54.99;100946.30;106892;1258;61641;-75
2023/06/13 04:39:40;;;;;;;3.40;2.10;;;;;;;14.50;54.83;100946.13;107358;1259;73309;-75
2023/06/13 04:42:07;;;;;;;6.10;2.30;;;;;;;14.60;54.48;100945.08;106919;1257;70069;-71
2023/06/13 04:44:35;;;;;;;3.60;2.20;;;;;;;14.70;54.44;100946.16;107656;1259;71965;-72
2023/06/13 04:47:02;;;;;;;4.50;2.00;;;;;;;14.80;54.05;100946.84;108749;1257;60390;-72
2023/06/13 04:49:30;;;;;;;6.80;2.30;;;;;;;14.88;54.01;100948.05;108762;1258;59893;-72
2023/06/13 04:51:58;;;;;;;4.70;2.00;;;;;;;14.98;53.93;100947.55;107749;1259;74972;-72
2023/06/13 04:54:25;;;;;;;3.70;2.20;;;;;;;15.06;53.54;100945.05;108826;1257;70051;-73
2023/06/13 04:56:52;;;;;;;5.40;2.00;;;;;;;15.15;53.41;100941.07;107478;1260;72646;-73
2023/06/13 04:59:19;;;;;;;5.70;1.90;;;;;;;15.25;53.18;100940.16;106545;1260;59168;-73
2023/06/13 05:01:47;;;;;;;5.90;2.20;;;;;;;15.32;53.02;100939.47;106952;1258;61340;-72
2023/06/13 05:04:15;;;;;;;5.40;2.10;;;;;;;15.39;52.56;100935.57;107097;1258;73421;-73
2023/06/13 05:06:42;;;;;;;12.90;2.10;;;;;;;15.47;52.34;100935.92;108800;1257;69992;-75
2023/06/13 05:09:10;;;;;;;5.30;2.00;;;;;;;15.56;52.26;100934.02;106640;1258;70998;-73
2023/06/13 05:11:37;;;;;;;4.10;2.20;;;;;;;15.64;52.25;100938.27;106851;1258;61376;-72
2023/06/13 05:14:04;;;;;;;4.50;2.00;;;;;;;15.72;51.98;100935.64;108026;1261;59410;-72
2023/06/13 05:16:31;;;;;;;3.40;1.90;;;;;;;15.80;51.63;100939.02;106933;1257;73150;-72
2023/06/13 05:19:00;;;;;;;4.50;2.30;;;;;;;15.87;51.57;100938.25;107051;1259;70225;-72
2023/06/13 05:21:28;;;;;;;5.20;2.20;;;;;;;15.95;51.64;100938.42;106791;1260;73193;-73
2023/06/13 05:23:56;;;;;;;4.00;2.30;;;;;;;16.03;51.35;100940.15;106886;1259;61126;-71
2023/06/13 05:26:22;;;;;;;4.40;2.40;;;;;;;16.13;50.89;100940.13;106839;1259;61670;-72
2023/06/13 05:28:49;;;;;;;6.80;2.30;;;;;;;16.22;50.53;100939.95;107108;1259;73444;-73
2023/06/13 05:31:16;;;;;;;5.40;2.20;;;;;;;16.31;50.36;100938.08;106797;1259;70193;-72
2023/06/13 05:33:43;;;;;;;8.30;2.40;;;;;;;16.41;50.23;100940.66;107099;1258;72807;-72
2023/06/13 05:36:11;;;;;;;4.00;2.20;;;;;;;16.53;50.06;100935.86;106853;1262;61237;-71
2023/06/13 05:38:38;;;;;;;6.20;2.30;;;;;;;16.64;49.91;100935.23;107282;1260;61192;-72
2023/06/13 05:41:05;;;;;;;4.10;2.10;;;;;;;16.74;49.53;100937.60;107081;1257;75917;-72
2023/06/13 05:43:33;;;;;;;5.20;2.00;;;;;;;16.81;49.06;100934.83;107134;1262;70510;-73
2023/06/13 05:46:00;;;;;;;5.30;2.10;;;;;;;16.89;48.85;100932.89;107236;1259;71213;-73
2023/06/13 05:48:28;;;;;;;7.20;2.00;;;;;;;16.97;48.64;100932.86;106821;1257;61633;-73
2023/06/13 05:50:55;;;;;;;5.30;2.10;;;;;;;17.07;48.40;100926.85;107180;1259;61651;-71
2023/06/13 05:53:23;;;;;;;4.90;2.10;;;;;;;17.18;48.35;100927.30;107025;1260;73721;-72
2023/06/13 05:55:50;;;;;;;3.20;1.90;;;;;;;17.27;48.16;100927.83;106864;1259;71357;-73
2023/06/13 05:58:17;;;;;;;6.70;2.50;;;;;;;17.37;47.94;100929.89;107156;1258;72391;-74
2023/06/13 06:00:45;;;;;;;4.30;1.90;;;;;;;17.47;47.89;100930.36;107109;1259;61585;-75
2023/06/13 06:03:13;;;;;;;6.10;2.10;;;;;;;17.57;47.47;100929.08;107017;1260;61342;-73
2023/06/13 06:05:40;;;;;;;5.50;2.20;;;;;;;17.68;47.31;100925.91;107917;1258;73354;-73
2023/06/13 06:08:07;;;;;;;4.80;1.90;;;;;;;17.79;46.68;100926.48;108773;1257;69740;-73
2023/06/13 06:10:34;;;;;;;3.70;2.00;;;;;;;17.89;46.54;100928.69;108655;1259;73144;-75
2023/06/13 06:13:01;;;;;;;6.40;2.00;;;;;;;17.98;46.51;100928.50;108676;1258;60647;-73
2023/06/13 06:15:28;;;;;;;4.50;2.00;;;;;;;18.09;46.04;100926.06;108669;1259;59120;-74
2023/06/13 06:17:55;;;;;;;5.90;2.20;;;;;;;18.19;46.13;100925.98;108705;1259;75202;-73
2023/06/13 06:20:23;;;;;;;3.80;2.10;;;;;;;18.31;46.00;100928.02;108533;1262;71215;-74
2023/06/13 06:22:50;;;;;;;4.40;1.90;;;;;;;18.41;45.40;100929.55;108525;1259;72744;-75
2023/06/13 06:25:19;;;;;;;4.30;1.90;;;;;;;18.50;45.29;100926.82;107763;1258;61178;-74
2023/06/13 06:27:50;;;;;;;8.70;2.20;;;;;;;18.59;45.10;100920.69;107320;1258;61270;-73
2023/06/13 06:30:17;;;;;;;5.80;2.00;;;;;;;18.69;45.11;100917.89;107310;1259;73202;-75
2023/06/13 06:32:44;;;;;;;5.00;2.10;;;;;;;18.82;44.70;100921.88;107144;1258;69644;-75
2023/06/13 06:35:11;;;;;;;4.20;2.00;;;;;;;18.89;44.58;100919.85;107405;1257;72678;-73
2023/06/13 06:37:38;;;;;;;3.30;1.80;;;;;;;18.96;44.44;100922.80;107473;1258;59227;-74
2023/06/13 06:40:06;;;;;;;4.50;1.90;;;;;;;19.09;44.19;100918.80;107362;1258;61210;-73
2023/06/13 06:42:32;;;;;;;6.50;2.00;;;;;;;19.19;44.00;100921.23;107128;1259;74478;-74
2023/06/13 06:44:59;;;;;;;5.60;1.90;;;;;;;19.27;43.67;100921.95;107031;1260;70041;-74
2023/06/13 06:47:26;;;;;;;5.20;2.10;;;;;;;19.33;43.65;100922.22;107424;1260;71538;-75
2023/06/13 06:49:53;;;;;;;3.90;2.30;;;;;;;19.42;43.63;100924.48;107080;1262;60743;-70
2023/06/13 06:52:20;;;;;;;5.80;1.90;;;;;;;19.49;43.02;100922.41;107252;1260;61733;-75
2023/06/13 06:54:47;;;;;;;4.70;2.30;;;;;;;19.56;43.17;100919.65;107438;1262;74980;-74
2023/06/13 06:57:14;;;;;;;6.10;2.00;;;;;;;19.65;42.88;100920.84;106992;1262;70101;-75
2023/06/13 06:59:42;;;;;;;6.10;2.30;;;;;;;19.76;43.10;100922.24;107702;1258;71499;-74
2023/06/13 07:02:08;;;;;;;7.10;2.00;;;;;;;19.87;42.93;100925.47;107576;1260;59678;-74
2023/06/13 07:04:35;;;;;;;5.60;2.20;;;;;;;19.97;42.90;100924.20;108158;1251;59942;-74
2023/06/13 07:07:03;;;;;;;4.40;2.00;;;;;;;20.06;42.48;100923.19;108151;1259;73487;-74
2023/06/13 07:09:29;;;;;;;4.30;2.00;;;;;;;20.14;42.22;100921.73;108189;1259;70030;-75
2023/06/13 07:11:57;;;;;;;7.60;2.70;;;;;;;20.24;42.20;100921.69;107626;1259;71226;-71
2023/06/13 07:14:27;;;;;;;4.30;1.90;;;;;;;20.28;41.65;100920.33;107415;1261;61406;-72
2023/06/13 07:16:54;;;;;;;5.90;2.10;;;;;;;20.35;42.34;100917.89;107870;1259;59407;-74
2023/06/13 07:19:23;;;;;;;4.80;2.10;;;;;;;20.47;42.44;100918.64;107770;1260;73791;-76
2023/06/13 07:21:50;;;;;;;5.10;2.00;;;;;;;20.56;41.54;100918.85;108423;1259;71118;-75
2023/06/13 07:24:16;;;;;;;5.10;2.00;;;;;;;20.63;41.60;100922.42;108492;1259;70757;-77
2023/06/13 07:26:43;;;;;;;4.90;2.30;;;;;;;20.71;41.98;100921.37;107876;1259;61180;-78
2023/06/13 07:29:10;;;;;;;4.40;2.10;;;;;;;20.79;41.50;100923.09;108065;1259;59172;-77
2023/06/13 07:31:37;;;;;;;4.00;2.00;;;;;;;20.87;41.03;100922.18;107713;1263;73541;-77
2023/06/13 07:34:04;;;;;;;6.80;2.20;;;;;;;20.95;41.15;100922.64;107717;1259;70334;-77
2023/06/13 07:36:41;;;;;;;4.80;2.20;;;;;;;21.08;40.79;100925.53;107990;1258;72179;-74
2023/06/13 07:39:12;;;;;;;5.20;2.20;;;;;;;21.18;40.13;100925.40;108487;1257;59308;-76
2023/06/13 07:41:46;;;;;;;4.80;2.40;;;;;;;21.25;40.05;100924.56;107291;1259;59230;-76
2023/06/13 07:44:16;;;;;;;5.90;2.40;;;;;;;21.32;40.01;100923.29;107975;1259;73438;-78
2023/06/13 07:46:44;;;;;;;4.30;2.10;;;;;;;21.41;39.65;100921.85;107538;1259;69683;-76
2023/06/13 07:49:11;;;;;;;4.20;2.00;;;;;;;21.51;39.58;100923.36;107506;1260;71492;-76
2023/06/13 07:51:39;;;;;;;5.40;2.20;;;;;;;21.62;39.21;100927.33;107843;1259;60428;-78
2023/06/13 07:54:06;;;;;;;5.40;2.50;;;;;;;21.71;39.12;100929.21;107568;1259;61290;-77
2023/06/13 07:56:33;;;;;;;4.40;2.30;;;;;;;21.80;39.09;100926.17;108029;1259;74698;-77
2023/06/13 07:59:01;;;;;;;4.00;2.20;;;;;;;21.86;38.61;100921.86;107689;1259;71445;-75
2023/06/13 08:01:28;;;;;;;5.80;2.40;;;;;;;21.95;39.18;100918.34;107675;1259;74234;-76
2023/06/13 08:03:55;;;;;;;4.90;2.40;;;;;;;22.02;39.14;100918.11;108002;1259;61143;-77
2023/06/13 08:06:21;;;;;;;6.60;2.20;;;;;;;22.11;39.34;100917.55;108211;1259;60099;-77
2023/06/13 08:08:48;;;;;;;6.10;2.30;;;;;;;22.25;39.42;100915.70;108116;1259;74400;-76
2023/06/13 08:11:15;;;;;;;5.10;2.40;;;;;;;22.39;39.08;100917.25;108722;1259;71242;-77
2023/06/13 08:13:42;;;;;;;5.60;2.60;;;;;;;22.51;39.05;100916.41;108772;1260;72746;-77
2023/06/13 08:16:09;;;;;;;6.70;2.50;;;;;;;22.64;38.87;100921.27;108763;1259;59409;-78
2023/06/13 08:18:39;;;;;;;6.10;2.40;;;;;;;22.73;38.45;100916.80;108661;1254;61473;31
2023/06/13 08:21:06;;;;;;;6.30;2.20;;;;;;;22.86;38.76;100911.34;108503;1259;73211;-78
2023/06/13 08:23:34;;;;;;;5.00;2.20;;;;;;;22.96;38.95;100905.45;107806;1259;69771;-76
2023/06/13 08:26:02;;;;;;;11.60;2.60;;;;;;;23.06;38.91;100905.28;107942;1260;71580;-78
2023/06/13 08:28:29;;;;;;;5.90;2.20;;;;;;;23.15;38.79;100904.98;107943;1260;61368;-78
2023/06/13 08:30:56;;;;;;;6.50;2.40;;;;;;;23.26;39.10;100906.56;107756;1265;59516;-78
2023/06/13 08:33:43;;;;;;;6.00;2.40;;;;;;;23.41;39.08;100908.03;107906;1264;73209;-77
2023/06/13 08:36:30;;;;;;;6.00;2.50;;;;;;;23.55;38.76;100908.45;107640;1259;71230;-78
2023/06/13 08:38:58;;;;;;;6.00;2.50;;;;;;;23.65;37.74;100903.55;107646;1260;71265;-77
2023/06/13 08:41:27;;;;;;;5.20;2.70;;;;;;;23.71;37.21;100900.85;108235;1261;59349;-73
2023/06/13 08:43:55;;;;;;;4.60;2.70;;;;;;;23.77;37.25;100898.64;107817;1260;59437;-76
2023/06/13 08:46:24;;;;;;;4.40;2.60;;;;;;;23.83;36.70;100896.04;108116;1260;73387;-77
2023/06/13 08:48:51;;;;;;;7.00;2.30;;;;;;;23.92;37.08;100896.93;107483;1261;70047;-75
2023/06/13 08:51:22;;;;;;;6.20;2.40;;;;;;;24.01;36.84;100897.98;107541;1260;72878;-73
2023/06/13 08:53:51;;;;;;;3.80;2.40;;;;;;;24.11;36.84;100896.78;107501;1259;59204;-76
2023/06/13 08:56:21;;;;;;;7.90;3.40;;;;;;;24.21;36.94;100896.48;108061;1259;59645;-75
2023/06/13 08:59:00;;;;;;;5.70;2.40;;;;;;;24.33;36.88;100892.92;108373;1259;75946;-76
2023/06/13 09:01:28;;;;;;;7.30;3.20;;;;;;;24.40;36.55;100887.60;107872;1259;69267;-76
2023/06/13 09:03:58;;;;;;;4.90;2.20;;;;;;;24.38;37.04;100889.00;107391;1261;70821;-78
2023/06/13 09:06:27;;;;;;;6.10;2.70;;;;;;;24.46;36.87;100888.56;108037;1258;62813;-77
2023/06/13 09:08:56;;;;;;;5.20;2.40;;;;;;;24.53;36.37;100889.87;107660;1260;61362;-76
2023/06/13 09:11:23;;;;;;;5.90;2.40;;;;;;;24.62;36.46;100888.89;108640;1260;74508;-76
2023/06/13 09:13:51;;;;;;;4.30;2.70;;;;;;;24.70;36.05;100888.16;108752;1257;70507;-76
2023/06/13 09:16:19;;;;;;;6.20;3.00;;;;;;;24.79;36.20;100887.21;108361;1259;72381;-75
2023/06/13 09:18:47;;;;;;;5.00;2.70;;;;;;;24.87;35.34;100881.44;107654;1259;61343;-75
2023/06/13 09:21:15;;;;;;;6.90;2.50;;;;;;;24.96;35.91;100877.56;107925;1260;61292;-74
2023/06/13 09:23:44;;;;;;;4.70;2.90;;;;;;;25.11;35.54;100881.90;108241;1259;73488;-76
2023/06/13 09:26:13;;;;;;;5.30;2.60;;;;;;;25.18;35.23;100879.54;107568;1259;68945;-76
2023/06/13 09:28:41;;;;;;;5.90;2.50;;;;;;;25.28;35.14;100877.83;107577;1260;72040;-77
2023/06/13 09:31:08;;;;;;;4.90;2.60;;;;;;;25.41;35.02;100876.48;107869;1262;59554;-78
2023/06/13 09:33:36;;;;;;;5.60;2.40;;;;;;;25.52;34.72;100872.16;107975;1260;60119;-77
2023/06/13 09:36:07;;;;;;;3.60;2.50;;;;;;;25.61;34.12;100871.62;107983;1259;74001;-77
2023/06/13 09:38:36;;;;;;;5.50;2.40;;;;;;;25.71;34.74;100873.58;108753;1260;71345;-77
2023/06/13 09:41:04;;;;;;;5.50;2.40;;;;;;;25.83;34.52;100874.13;108516;1260;70646;-76
2023/06/13 09:43:31;;;;;;;4.90;2.60;;;;;;;25.94;34.36;100874.96;108471;1259;61098;-77
2023/06/13 09:45:58;;;;;;;5.30;2.40;;;;;;;26.08;33.79;100870.38;107585;1261;59539;-75
2023/06/13 09:48:26;;;;;;;7.70;3.20;;;;;;;26.18;33.14;100867.09;107613;1264;73483;-74
2023/06/13 09:50:54;;;;;;;4.90;2.60;;;;;;;26.22;32.65;100862.95;107411;1259;69888;-76
2023/06/13 09:53:21;;;;;;;4.30;2.30;;;;;;;26.22;33.05;100858.98;108346;1260;72136;-79
2023/06/13 09:55:49;;;;;;;6.70;2.40;;;;;;;26.29;33.14;100859.07;107988;1261;61239;-79
2023/06/13 09:58:16;;;;;;;5.20;2.80;;;;;;;26.37;32.41;100854.90;107652;1260;60461;-75
2023/06/13 10:00:59;;;;;;;5.30;2.60;;;;;;;26.46;33.03;100851.24;107614;1259;74555;-78
2023/06/13 10:03:27;;;;;;;8.70;2.50;;;;;;;26.52;31.95;100849.26;108224;1260;69689;-78
2023/06/13 10:05:57;;;;;;;4.40;2.70;;;;;;;26.61;31.93;100845.66;107834;1259;71569;-74
2023/06/13 10:08:24;;;;;;;10.70;2.70;;;;;;;26.70;31.46;100843.54;107977;1259;61419;-78
2023/06/13 10:10:51;;;;;;;5.00;2.80;;;;;;;26.82;31.10;100837.23;108623;1260;61249;-77
2023/06/13 10:13:21;;;;;;;7.40;2.80;;;;;;;26.93;31.78;100837.55;108139;1259;74823;-77
2023/06/13 10:15:51;;;;;;;4.40;2.50;;;;;;;27.01;30.80;100833.69;108293;1259;69930;-77
2023/06/13 10:18:28;;;;;;;5.70;2.70;;;;;;;27.10;30.28;100836.90;107631;1260;71534;-78
2023/06/13 10:20:57;;;;;;;5.70;2.70;;;;;;;27.22;29.78;100835.31;108063;1259;59531;-78
2023/06/13 10:23:30;;;;;;;5.00;2.80;;;;;;;27.32;29.36;100833.89;107968;1259;59613;-78
2023/06/13 10:26:03;;;;;;;4.40;2.60;;;;;;;27.43;28.97;100832.23;108315;1259;74550;-76
2023/06/13 10:29:04;;;;;;;7.60;3.30;;;;;;;27.55;28.34;100830.93;108254;1260;71198;-78
2023/06/13 10:31:56;;;;;;;4.70;2.60;;;;;;;27.71;27.70;100828.27;108019;1260;71904;-76
2023/06/13 10:34:30;;;;;;;6.30;3.00;;;;;;;27.94;27.24;100827.55;107983;1260;61656;-78
2023/06/13 10:37:30;;;;;;;6.40;2.70;;;;;;;28.14;26.82;100824.11;107795;1260;61151;-79
2023/06/13 10:40:34;;;;;;;5.40;2.90;;;;;;;28.37;26.59;100814.23;107945;1260;73723;-77
2023/06/13 10:43:21;;;;;;;5.20;2.80;;;;;;;28.64;25.79;100819.34;108319;1259;70958;-76
2023/06/13 10:45:49;;;;;;;5.70;3.10;;;;;;;28.94;25.01;100816.80;107671;1265;72904;-75
2023/06/13 10:48:30;;;;;;;4.60;2.90;;;;;;;29.13;24.25;100816.30;107824;1259;59536;-75
2023/06/13 10:51:00;;;;;;;5.50;2.70;;;;;;;29.26;24.10;100810.98;108055;1259;61270;-76
2023/06/13 10:53:27;;;;;;;3.70;2.80;;;;;;;29.34;24.00;100811.88;107835;1260;72790;-77
2023/06/13 10:56:01;;;;;;;6.20;2.60;;;;;;;29.38;24.54;100809.59;107486;1260;69376;-78
2023/06/13 10:58:29;;;;;;;6.70;2.60;;;;;;;29.49;25.13;100812.39;108145;1259;71776;-78
2023/06/13 11:00:56;;;;;;;4.50;2.80;;;;;;;29.55;24.70;100805.52;108064;1260;60586;-76
2023/06/13 11:03:33;;;;;;;4.90;2.70;;;;;;;29.60;24.59;100803.95;108213;1258;61625;-77
2023/06/13 11:06:15;;;;;;;5.20;2.60;;;;;;;29.65;24.77;100799.17;107843;1259;73520;-79
2023/06/13 11:08:42;;;;;;;4.60;3.20;;;;;;;29.74;24.80;100797.99;108308;1259;72462;-77
2023/06/13 11:11:09;;;;;;;4.30;2.70;;;;;;;29.75;24.26;100790.96;107750;1259;74224;-76
2023/06/13 11:13:45;;;;;;;5.90;3.10;;;;;;;29.78;23.95;100798.18;108346;1259;61738;-76
2023/06/13 11:16:34;;;;;;;4.10;2.50;;;;;;;29.83;23.74;100791.05;107820;1260;61221;-75
2023/06/13 11:19:11;;;;;;;4.80;2.80;;;;;;;29.82;23.60;100784.50;108037;1261;75594;-75
2023/06/13 11:21:58;;;;;;;4.70;3.00;;;;;;;29.79;23.76;100779.48;107937;1259;72494;-75
2023/06/13 11:24:27;;;;;;;7.00;3.00;;;;;;;29.82;23.83;100785.37;108239;1259;73822;-73
2023/06/13 11:26:56;;;;;;;5.00;2.90;;;;;;;29.83;23.59;100776.00;108112;1259;61490;-75